Time;durP1;ratioP1;P1;durP2;ratioP2;P2;SDS_P1;SDS_P2;PMS_P1;PMS_P2;Temp;Humidity;BMP_temperature;BMP_pressure;BME280_temperature;BME280_humidity;BME280_pressure;Samples;Min_cycle;Max_cycle;Signal;HPM_P1;HPM_P2
2022/06/14 00:00:55;;;;;;;13.60;3.65;;;;;;;11.33;71.83;102249.53;5188989;28;20010;-73
2022/06/14 00:03:31;;;;;;;9.63;2.92;;;;;;;11.31;72.58;102249.50;5192318;28;20080;-73
2022/06/14 00:06:08;;;;;;;12.68;3.95;;;;;;;11.23;71.78;102250.34;5192254;28;20026;-73
2022/06/14 00:08:40;;;;;;;9.75;2.97;;;;;;;11.21;72.71;102254.69;5192492;28;20992;-71
2022/06/14 00:11:22;;;;;;;8.57;3.13;;;;;;;11.24;71.93;102252.09;5192510;28;20534;-74
2022/06/14 00:13:55;;;;;;;8.80;3.35;;;;;;;11.19;72.95;102252.06;5192170;28;20137;-70
2022/06/14 00:16:27;;;;;;;;;;;;;;;11.36;69.43;102251.31;5192964;28;20034;-73
2022/06/14 00:19:01;;;;;;;11.23;3.63;;;;;;;11.07;72.74;102247.59;5192538;28;19925;-71
2022/06/14 00:21:34;;;;;;;11.85;3.85;;;;;;;11.08;72.80;102238.91;5192161;28;20288;-71
2022/06/14 00:24:06;;;;;;;8.20;3.90;;;;;;;11.09;73.80;102244.97;5192335;28;20034;-73
2022/06/14 00:26:37;;;;;;;11.23;4.00;;;;;;;11.07;73.67;102244.97;5191700;28;20052;-73
2022/06/14 00:29:08;;;;;;;10.73;3.97;;;;;;;10.83;74.00;102240.41;5192313;28;20083;-72
2022/06/14 00:31:40;;;;;;;11.57;3.57;;;;;;;10.86;73.96;102247.41;5192205;28;20022;-72
2022/06/14 00:34:11;;;;;;;9.03;3.97;;;;;;;10.95;74.16;102245.75;5192667;28;20487;-72
2022/06/14 00:36:51;;;;;;;8.60;4.30;;;;;;;10.85;74.04;102253.47;5192114;28;20121;-72
2022/06/14 00:39:23;;;;;;;10.68;3.72;;;;;;;10.68;75.12;102240.28;5191997;28;20030;-72
2022/06/14 00:41:56;;;;;;;11.23;4.20;;;;;;;10.77;75.45;102240.38;5192012;28;20034;-72
2022/06/14 00:44:29;;;;;;;12.40;3.92;;;;;;;10.61;75.94;102241.06;5192152;28;20026;-71
2022/06/14 00:47:13;;;;;;;8.07;3.60;;;;;;;10.51;75.74;102229.66;5191787;28;20033;-71
2022/06/14 00:49:52;;;;;;;11.07;4.05;;;;;;;10.53;76.46;102228.81;5191504;28;20117;-73
2022/06/14 00:52:32;;;;;;;9.82;3.83;;;;;;;10.31;77.52;102237.25;5191573;28;20027;-72
2022/06/14 00:55:10;;;;;;;12.07;4.15;;;;;;;10.11;76.88;102229.16;5171658;28;20034;-75
2022/06/14 00:57:53;;;;;;;12.27;4.03;;;;;;;10.07;77.43;102241.28;5171526;28;20077;-72
2022/06/14 01:00:30;;;;;;;13.45;4.53;;;;;;;10.10;77.56;102228.28;5171462;28;20046;-72
2022/06/14 01:03:12;;;;;;;11.93;4.10;;;;;;;10.20;77.70;102235.34;5171411;28;20055;-72
2022/06/14 01:06:05;;;;;;;12.60;4.28;;;;;;;10.18;77.43;102231.88;5171536;28;20050;-72
2022/06/14 01:08:51;;;;;;;8.18;4.40;;;;;;;10.04;77.97;102225.59;5182198;28;20087;-73
2022/06/14 01:11:44;;;;;;;12.82;5.43;;;;;;;10.04;78.10;102225.59;5191781;28;20061;-74
2022/06/14 01:14:46;;;;;;;11.65;4.18;;;;;;;10.02;78.27;102228.19;5191496;28;20026;-71
2022/06/14 01:17:18;;;;;;;12.35;4.22;;;;;;;9.91;78.59;102231.53;5191384;28;20137;-74
2022/06/14 01:19:50;;;;;;;10.48;4.88;;;;;;;9.95;78.10;102244.63;5191606;28;20043;-72
2022/06/14 01:22:22;;;;;;;12.30;4.17;;;;;;;10.00;78.32;102240.34;5191333;28;20026;-73
2022/06/14 01:24:54;;;;;;;10.63;4.05;;;;;;;9.96;78.55;102229.84;5191485;28;20036;-72
2022/06/14 01:27:27;;;;;;;12.68;5.00;;;;;;;9.84;79.06;102234.03;5190663;28;20483;-72
2022/06/14 01:30:04;;;;;;;9.57;4.15;;;;;;;9.94;78.70;102223.75;5191043;28;20034;-72
2022/06/14 01:32:42;;;;;;;9.57;3.85;;;;;;;9.88;79.30;102231.47;5191879;28;20494;-73
2022/06/14 01:35:18;;;;;;;11.63;3.90;;;;;;;9.99;79.36;102228.16;5191888;28;20510;-72
2022/06/14 01:37:52;;;;;;;11.13;4.80;;;;;;;9.96;79.53;102222.03;5191237;28;20030;-72
2022/06/14 01:41:05;;;;;;;13.18;4.53;;;;;;;9.88;79.42;102219.31;5191405;28;20034;-73
2022/06/14 01:44:04;;;;;;;12.02;4.43;;;;;;;9.81;79.74;102215.78;5190668;28;20042;-72
2022/06/14 01:46:53;;;;;;;10.80;4.38;;;;;;;9.76;79.73;102219.19;5191214;28;20042;-72
2022/06/14 01:53:18;;;;;;;10.57;4.28;;;;;;;9.64;80.30;102220.75;5108389;29;20044;-74
2022/06/14 01:56:16;;;;;;;10.50;5.13;;;;;;;9.58;80.95;102219.78;5107985;29;20040;-70
2022/06/14 01:59:20;;;;;;;13.43;6.32;;;;;;;9.56;81.03;102218.88;5107580;28;20090;-72
2022/06/14 02:02:10;;;;;;;15.75;4.60;;;;;;;9.51;81.24;102210.13;5107899;29;20480;-71
2022/06/14 02:04:56;;;;;;;11.95;4.75;;;;;;;9.52;81.44;102206.69;5108145;28;20047;-71
2022/06/14 02:07:56;;;;;;;18.73;6.80;;;;;;;9.43;80.89;102203.06;5107524;29;20159;-72
2022/06/14 02:10:56;;;;;;;13.18;4.50;;;;;;;9.39;81.72;102208.25;5107889;29;20043;-75
2022/06/14 02:13:43;;;;;;;11.88;5.00;;;;;;;9.38;81.97;102196.06;5107686;29;20048;-73
2022/06/14 02:16:23;;;;;;;17.88;5.65;;;;;;;9.22;81.59;102200.16;5108166;29;20491;-77
2022/06/14 02:19:09;;;;;;;14.32;5.72;;;;;;;9.29;82.30;102196.81;5107630;28;20052;-73
2022/06/14 02:21:54;;;;;;;14.07;5.05;;;;;;;9.23;81.82;102197.59;5108223;28;20032;-74
2022/06/14 02:24:36;;;;;;;12.13;5.60;;;;;;;9.22;82.64;102195.81;5107306;29;20036;-73
2022/06/14 02:27:25;;;;;;;17.40;6.00;;;;;;;9.20;82.63;102189.72;5157945;28;20042;-72
2022/06/14 02:30:06;;;;;;;10.77;5.32;;;;;;;8.99;82.59;102189.41;5190113;28;20483;-74
2022/06/14 02:32:56;;;;;;;12.88;4.97;;;;;;;9.06;82.75;102181.69;5190496;28;20072;-71
2022/06/14 02:36:03;;;;;;;16.13;5.18;;;;;;;9.00;82.30;102192.03;5190519;28;20403;-74
2022/06/14 02:38:53;;;;;;;14.55;5.13;;;;;;;8.95;82.94;102193.66;5212553;28;20443;-71
2022/06/14 02:41:32;;;;;;;12.63;4.63;;;;;;;8.90;83.08;102187.50;5210939;28;20705;-71
2022/06/14 02:44:12;;;;;;;10.23;4.88;;;;;;;8.85;83.12;102189.16;5210422;28;20033;-73
2022/06/14 02:46:49;;;;;;;15.60;5.35;;;;;;;8.82;83.45;102182.16;5210953;28;20676;-74
2022/06/14 02:49:30;;;;;;;10.32;4.78;;;;;;;8.75;83.64;102169.94;5210624;28;20042;-73
2022/06/14 02:52:10;;;;;;;12.32;4.93;;;;;;;8.71;83.74;102176.81;5211911;28;20123;-74
2022/06/14 02:54:59;;;;;;;10.63;4.43;;;;;;;8.66;84.09;102182.75;5212004;28;20038;-74
2022/06/14 02:58:03;;;;;;;10.43;5.47;;;;;;;8.75;84.20;102175.13;5213255;28;20048;-73
2022/06/14 03:00:37;;;;;;;10.40;4.68;;;;;;;8.60;84.04;102178.34;5210647;28;20044;-77
2022/06/14 03:03:17;;;;;;;10.27;4.68;;;;;;;8.53;84.35;102168.69;5211111;28;20033;-74
2022/06/14 03:05:55;;;;;;;13.98;4.60;;;;;;;8.48;84.73;102176.38;5210584;28;20022;-72
2022/06/14 03:08:34;;;;;;;10.70;5.50;;;;;;;8.43;84.88;102177.13;5210440;28;20119;-75
2022/06/14 03:11:20;;;;;;;13.30;4.68;;;;;;;8.43;85.18;102182.31;5231027;28;20124;-78
2022/06/14 03:13:58;;;;;;;13.52;5.85;;;;;;;8.37;85.27;102177.88;5213885;28;20408;-71
2022/06/14 03:16:39;;;;;;;13.30;5.35;;;;;;;8.33;85.76;102173.50;5190032;28;20480;-75
2022/06/14 03:19:22;;;;;;;16.30;6.68;;;;;;;8.28;85.55;102176.00;5189984;28;20423;-73
2022/06/14 03:22:00;;;;;;;10.80;5.65;;;;;;;8.20;85.71;102182.78;5256862;28;20111;-72
2022/06/14 03:24:57;;;;;;;14.70;5.80;;;;;;;8.32;85.79;102182.13;5189550;28;20030;-72
2022/06/14 03:27:42;;;;;;;10.38;5.13;;;;;;;8.26;85.84;102190.69;5189351;28;20046;-70
2022/06/14 03:30:39;;;;;;;12.73;6.10;;;;;;;8.17;85.98;102182.72;5189206;28;20053;-71
2022/06/14 03:33:18;;;;;;;14.40;5.60;;;;;;;8.27;85.66;102184.63;5109362;29;20118;-76
2022/06/14 03:35:53;;;;;;;15.35;5.35;;;;;;;8.26;85.93;102190.69;5110143;29;20055;-69
2022/06/14 03:38:52;;;;;;;18.77;6.85;;;;;;;8.30;85.89;102186.41;5113570;29;20106;-71
2022/06/14 03:41:27;;;;;;;14.40;6.05;;;;;;;8.24;86.29;102192.34;5112939;29;20123;-73
2022/06/14 03:44:01;;;;;;;12.90;5.40;;;;;;;8.21;86.32;102185.41;5112813;29;20090;-72
2022/06/14 03:46:39;;;;;;;12.05;5.53;;;;;;;8.23;86.57;102188.03;5113168;29;20080;-71
2022/06/14 03:49:15;;;;;;;13.27;6.28;;;;;;;8.19;86.78;102184.50;5113197;29;20141;-72
2022/06/14 03:52:27;;;;;;;20.88;6.70;;;;;;;8.28;87.14;102183.78;5113644;29;20040;-70
2022/06/14 03:55:05;;;;;;;16.50;5.32;;;;;;;8.20;87.05;102186.22;5110364;29;20063;-72
2022/06/14 03:57:48;;;;;;;13.07;5.30;;;;;;;8.21;87.29;102184.50;5113293;29;20040;-70
2022/06/14 04:00:35;;;;;;;13.63;5.18;;;;;;;8.31;87.01;102181.25;5113370;29;20038;-71
2022/06/14 04:03:36;;;;;;;12.23;5.75;;;;;;;8.36;87.26;102187.41;5114013;29;20055;-69
2022/06/14 04:06:16;;;;;;;14.20;6.35;;;;;;;8.25;86.48;102181.13;5214099;28;20041;-71
2022/06/14 04:09:33;;;;;;;12.30;5.55;;;;;;;8.33;87.19;102187.34;5213381;28;20046;-71
2022/06/14 04:12:20;;;;;;;14.13;6.50;;;;;;;8.29;86.94;102197.66;5192782;28;20076;-72
2022/06/14 04:15:32;;;;;;;14.77;5.35;;;;;;;8.42;87.46;102188.34;5172401;28;20031;-71
2022/06/14 04:18:34;;;;;;;15.43;6.90;;;;;;;8.43;87.52;102197.91;5192945;28;20038;-69
2022/06/14 04:21:20;;;;;;;10.52;5.40;;;;;;;8.39;87.56;102195.25;5193188;28;20031;-71
2022/06/14 04:24:28;;;;;;;13.75;5.80;;;;;;;8.48;87.87;102196.31;5192826;28;20392;-69
2022/06/14 04:27:17;;;;;;;12.90;5.25;;;;;;;8.52;87.54;102199.00;5192947;28;20101;-77
2022/06/14 04:30:14;;;;;;;12.30;5.57;;;;;;;8.57;87.83;102194.75;5213299;28;20053;-71
2022/06/14 04:33:02;;;;;;;16.55;7.03;;;;;;;8.60;88.33;102193.03;5131889;29;20056;-77
2022/06/14 04:35:50;;;;;;;16.42;5.88;;;;;;;8.68;87.75;102201.88;5132546;29;20042;-72
2022/06/14 04:38:37;;;;;;;11.80;6.13;;;;;;;8.78;88.06;102200.31;5132276;29;20095;-75
2022/06/14 04:41:15;;;;;;;11.40;5.57;;;;;;;8.85;87.54;102207.38;5132774;29;20038;-74
2022/06/14 04:44:06;;;;;;;11.95;5.38;;;;;;;8.97;87.39;102210.19;5132528;29;20047;-75
2022/06/14 04:46:42;;;;;;;11.73;5.82;;;;;;;8.93;87.17;102203.16;5132363;29;20374;-74
2022/06/14 04:49:23;;;;;;;14.73;5.80;;;;;;;8.91;86.76;102207.47;5131927;29;20096;-73
2022/06/14 04:52:23;;;;;;;14.98;6.50;;;;;;;9.07;86.73;102206.88;5171473;28;20046;-73
2022/06/14 04:55:05;;;;;;;13.20;5.88;;;;;;;9.15;87.32;102203.53;5204146;28;20046;-74
2022/06/14 04:57:45;;;;;;;18.48;6.47;;;;;;;9.19;86.80;102205.31;5211441;28;20046;-76
2022/06/14 05:00:28;;;;;;;20.70;7.28;;;;;;;9.38;86.97;102201.28;5212705;28;20111;-74
2022/06/14 05:03:14;;;;;;;19.85;7.55;;;;;;;9.52;87.58;102204.97;5212203;28;20558;-77
2022/06/14 05:05:50;;;;;;;18.15;7.85;;;;;;;9.67;87.80;102202.56;5211271;28;20119;-74
2022/06/14 05:08:29;;;;;;;21.58;8.18;;;;;;;9.80;87.89;102202.72;5192921;28;20046;-76
2022/06/14 05:11:11;;;;;;;19.25;9.20;;;;;;;9.91;87.43;102202.88;5185535;28;20035;-81
2022/06/14 05:13:54;;;;;;;16.27;8.47;;;;;;;10.08;87.85;102200.47;5191665;28;20027;-79
2022/06/14 05:16:34;;;;;;;17.50;7.22;;;;;;;10.11;87.32;102206.59;5190653;28;20752;-79
2022/06/14 05:19:31;;;;;;;20.08;9.07;;;;;;;10.26;87.76;102207.66;5190665;28;20433;-77
2022/06/14 05:22:08;;;;;;;24.55;8.98;;;;;;;10.34;86.72;102214.72;5190298;28;20677;-72
2022/06/14 05:24:40;;;;;;;15.40;7.88;;;;;;;10.50;87.67;102212.28;5191345;28;20034;-74
2022/06/14 05:27:24;;;;;;;25.02;10.65;;;;;;;10.57;86.30;102209.72;5188852;28;20033;-80
2022/06/14 05:30:24;;;;;;;24.30;9.20;;;;;;;10.64;86.39;102202.88;5186393;28;20398;-78
2022/06/14 05:33:14;;;;;;;17.15;7.93;;;;;;;10.71;85.78;102209.00;5184938;28;20038;-79
2022/06/14 05:35:54;;;;;;;15.93;7.72;;;;;;;10.77;85.99;102209.94;5251822;28;20515;-74
2022/06/14 05:38:45;;;;;;;15.10;7.78;;;;;;;10.90;86.05;102210.94;5185019;28;20037;-76
2022/06/14 05:41:37;;;;;;;17.98;7.72;;;;;;;11.00;86.07;102211.00;5184577;28;20035;-79
2022/06/14 05:44:20;;;;;;;19.70;7.18;;;;;;;11.09;85.16;102217.19;5185617;28;20097;-76
2022/06/14 05:46:54;;;;;;;16.83;7.00;;;;;;;11.15;85.26;102215.47;5183936;28;20038;-75
2022/06/14 05:49:30;;;;;;;15.68;6.35;;;;;;;11.26;84.77;102216.44;5184149;28;20527;-77
2022/06/14 05:52:26;;;;;;;15.82;5.65;;;;;;;11.34;83.78;102213.88;5184101;28;20253;-73
2022/06/14 05:55:03;;;;;;;16.77;6.10;;;;;;;11.36;83.44;102214.75;5184756;28;20030;-79
2022/06/14 05:57:39;;;;;;;9.55;5.32;;;;;;;11.52;83.80;102215.72;5185821;28;20043;-76
2022/06/14 06:00:16;;;;;;;12.15;5.50;;;;;;;11.60;81.53;102214.03;5183843;28;20034;-74
2022/06/14 06:03:05;;;;;;;15.82;5.85;;;;;;;11.73;81.52;102223.69;5185374;28;20036;-74
2022/06/14 06:05:44;;;;;;;11.77;4.78;;;;;;;11.76;80.60;102222.84;5185026;28;20042;-79
2022/06/14 06:08:37;;;;;;;15.55;6.47;;;;;;;11.79;79.58;102230.69;5184772;28;20046;-80
2022/06/14 06:11:46;;;;;;;11.43;5.17;;;;;;;11.95;81.36;102229.06;5188845;28;20045;-76
2022/06/14 06:14:32;;;;;;;12.55;5.47;;;;;;;12.01;79.18;102229.06;5180269;28;20298;-73
2022/06/14 06:17:23;;;;;;;12.15;4.65;;;;;;;12.11;77.88;102240.47;5170971;28;20038;-72
2022/06/14 06:20:46;;;;;;;11.45;4.72;;;;;;;12.25;76.98;102238.75;5197788;28;20035;-79
2022/06/14 06:23:24;;;;;;;11.82;5.22;;;;;;;12.36;75.08;102234.47;5153735;28;20099;-73
2022/06/14 06:25:58;;;;;;;12.27;4.88;;;;;;;12.42;75.62;102237.94;5160972;28;20121;-73
2022/06/14 06:28:32;;;;;;;14.63;5.57;;;;;;;12.44;75.54;102231.84;5171046;28;20057;-73
2022/06/14 06:31:22;;;;;;;18.55;5.00;;;;;;;12.56;74.88;102225.78;5166769;28;20464;-73
2022/06/14 06:33:56;;;;;;;11.63;4.80;;;;;;;12.69;75.07;102222.31;5170894;28;20412;-80
2022/06/14 06:36:55;;;;;;;13.40;5.43;;;;;;;12.77;75.39;102236.28;5173048;28;20053;-73
2022/06/14 06:39:35;;;;;;;16.58;5.13;;;;;;;12.88;74.22;102233.66;5171516;28;20539;-78
2022/06/14 06:42:22;;;;;;;12.10;5.55;;;;;;;12.96;74.26;102238.91;5172258;28;20047;-73
2022/06/14 06:45:12;;;;;;;11.90;5.63;;;;;;;13.01;73.48;102239.78;5171501;28;20062;-74
2022/06/14 06:47:54;;;;;;;14.57;6.18;;;;;;;13.10;72.54;102245.00;5190550;28;20041;-79
2022/06/14 06:50:46;;;;;;;16.05;5.93;;;;;;;13.19;72.32;102243.28;5233096;28;20116;-73
2022/06/14 06:53:23;;;;;;;15.63;5.72;;;;;;;13.32;72.81;102239.78;5234839;28;20049;-75
2022/06/14 06:56:13;;;;;;;15.43;6.45;;;;;;;13.46;74.77;102245.03;5233112;28;20037;-78
2022/06/14 06:58:59;;;;;;;11.27;6.22;;;;;;;13.57;72.73;102239.75;5197766;28;20498;-75
2022/06/14 07:01:41;;;;;;;10.10;4.88;;;;;;;13.65;68.45;102238.00;5240953;28;20256;-74
2022/06/14 07:07:31;;;;;;;10.45;4.45;;;;;;;13.94;66.89;102237.03;5173478;28;20114;-73
2022/06/14 07:10:19;;;;;;;12.73;4.75;;;;;;;14.02;66.08;102232.63;5239796;28;20037;-74
2022/06/14 07:13:00;;;;;;;8.93;3.85;;;;;;;14.18;65.92;102234.34;5172292;28;20042;-74
2022/06/14 07:15:38;;;;;;;10.38;4.68;;;;;;;14.30;64.80;102236.03;5174089;28;20316;-73
2022/06/14 07:18:10;;;;;;;9.55;3.95;;;;;;;14.33;65.42;102242.97;5173566;28;20029;-74
2022/06/14 07:21:30;;;;;;;9.70;3.50;;;;;;;14.38;64.44;102242.09;5171596;28;20042;-73
2022/06/14 07:24:15;;;;;;;11.48;4.32;;;;;;;14.48;62.00;102237.66;5211631;28;20038;-75
2022/06/14 07:26:54;;;;;;;10.57;4.80;;;;;;;14.58;61.23;102238.47;5211480;28;20107;-75
2022/06/14 07:29:34;;;;;;;5.40;3.05;;;;;;;14.54;57.44;102228.91;5211465;28;20149;-73
2022/06/14 07:32:18;;;;;;;10.68;3.55;;;;;;;14.56;60.50;102224.50;5210340;28;20046;-73
2022/06/14 07:34:51;;;;;;;5.15;2.80;;;;;;;14.71;59.00;102242.78;5194497;28;20479;-74
2022/06/14 07:37:40;;;;;;;10.55;3.40;;;;;;;14.81;57.20;102234.88;5209936;28;20049;-76
2022/06/14 07:40:25;;;;;;;9.75;3.42;;;;;;;14.91;58.54;102229.53;5209847;28;20034;-73
2022/06/14 07:43:11;;;;;;;8.38;2.78;;;;;;;15.14;56.31;102233.72;5209905;28;20831;-73
2022/06/14 07:45:46;;;;;;;10.43;3.75;;;;;;;15.12;54.47;102231.13;5210154;28;20030;-73
2022/06/14 07:48:31;;;;;;;6.88;2.75;;;;;;;15.23;55.69;102238.00;5210307;28;20044;-76
2022/06/14 07:51:10;;;;;;;10.50;3.50;;;;;;;15.17;58.83;102233.72;5212544;28;20480;-76
2022/06/14 07:54:00;;;;;;;11.18;3.53;;;;;;;15.37;59.97;102230.03;5209459;28;20041;-74
2022/06/14 07:56:39;;;;;;;9.50;3.45;;;;;;;15.37;55.27;102232.66;5210284;28;20042;-75
2022/06/14 07:59:16;;;;;;;9.98;3.78;;;;;;;15.54;57.84;102241.25;5210223;28;20038;-76
2022/06/14 08:01:59;;;;;;;15.57;3.60;;;;;;;15.71;57.16;102237.56;5237531;28;20034;-78
2022/06/14 08:04:41;;;;;;;7.38;3.47;;;;;;;15.51;52.50;102228.13;5175508;28;20060;-79
2022/06/14 08:07:15;;;;;;;7.00;3.17;;;;;;;15.67;53.56;102228.84;5174979;28;20079;-75
2022/06/14 08:10:10;;;;;;;7.20;3.05;;;;;;;15.78;54.19;102240.13;5176218;28;20099;-75
2022/06/14 08:12:59;;;;;;;9.65;3.28;;;;;;;15.94;55.78;102232.94;5175344;28;20031;-76
2022/06/14 08:15:36;;;;;;;6.53;2.80;;;;;;;15.88;54.33;102222.50;5174109;28;20031;-77
2022/06/14 08:18:16;;;;;;;10.60;3.30;;;;;;;15.97;55.66;102224.13;5174194;28;20536;-79
2022/06/14 08:20:54;;;;;;;10.10;3.80;;;;;;;15.84;51.99;102216.41;5173687;28;20125;-80
2022/06/14 08:23:34;;;;;;;6.82;3.05;;;;;;;16.03;53.42;102213.53;5177646;28;20045;-77
2022/06/14 08:26:26;;;;;;;7.90;2.90;;;;;;;16.16;53.51;102216.88;5246292;28;20035;-80
2022/06/14 08:29:22;;;;;;;9.27;4.55;;;;;;;16.12;52.17;102210.78;5178732;28;20042;-79
2022/06/14 08:31:59;;;;;;;9.30;3.70;;;;;;;15.84;51.95;102216.41;5177394;28;20126;-81
2022/06/14 08:34:38;;;;;;;8.35;3.00;;;;;;;15.94;53.27;102214.53;5177820;28;20149;-80
2022/06/14 08:37:22;;;;;;;8.85;2.80;;;;;;;16.18;54.53;102204.56;5179370;28;20914;-77
2022/06/14 08:40:01;;;;;;;8.07;2.95;;;;;;;16.30;53.37;102200.91;5178528;28;20041;-79
2022/06/14 08:42:37;;;;;;;11.70;3.40;;;;;;;16.49;53.49;102198.88;5176852;28;20042;-77
2022/06/14 08:45:17;;;;;;;8.00;2.90;;;;;;;16.75;53.69;102214.28;5177702;28;20094;-77
2022/06/14 08:48:05;;;;;;;7.55;3.42;;;;;;;16.63;50.63;102207.44;5178706;28;20106;-76
2022/06/14 08:51:10;;;;;;;8.25;3.20;;;;;;;16.82;52.74;102209.78;5178469;28;20063;-79
2022/06/14 08:54:19;;;;;;;9.18;2.85;;;;;;;17.04;52.00;102205.94;5222411;28;20040;-77
2022/06/14 08:57:08;;;;;;;7.30;2.90;;;;;;;17.19;52.47;102201.28;5225515;28;20065;-79
2022/06/14 08:59:58;;;;;;;10.20;3.58;;;;;;;17.43;52.33;102213.16;5223054;28;20464;-74
2022/06/14 09:02:57;;;;;;;9.98;4.10;;;;;;;17.26;50.65;102205.56;5218246;28;20085;-73
2022/06/14 09:05:47;;;;;;;11.43;3.17;;;;;;;17.37;51.60;102203.59;5214859;28;20428;-74
2022/06/14 09:08:40;;;;;;;10.52;3.78;;;;;;;17.60;52.74;102203.16;5215246;28;20053;-79
2022/06/14 09:11:16;;;;;;;9.60;3.35;;;;;;;17.68;50.77;102201.22;5213068;28;20053;-74
2022/06/14 09:14:00;;;;;;;6.00;3.00;;;;;;;17.69;51.30;102202.09;5214414;28;20471;-73
2022/06/14 09:16:50;;;;;;;9.35;3.70;;;;;;;17.73;51.15;102200.28;5213684;28;20081;-73
2022/06/14 09:19:58;;;;;;;6.82;2.55;;;;;;;17.90;49.18;102197.31;5212572;28;20474;-73
2022/06/14 09:22:36;;;;;;;8.45;3.38;;;;;;;17.85;48.24;102198.25;5212392;28;20470;-74
2022/06/14 09:25:32;;;;;;;8.77;3.65;;;;;;;17.83;50.67;102197.41;5212672;28;20092;-72
2022/06/14 09:28:06;;;;;;;9.13;3.75;;;;;;;17.74;49.83;102194.97;5213049;28;20034;-73
2022/06/14 09:30:59;;;;;;;8.30;3.50;;;;;;;17.95;49.18;102193.69;5189141;28;20077;-72
2022/06/14 09:33:44;;;;;;;8.57;3.17;;;;;;;18.06;48.32;102192.59;5171674;28;20075;-73
2022/06/14 09:36:45;;;;;;;10.75;3.58;;;;;;;18.29;47.77;102187.66;5172261;28;20079;-74
2022/06/14 09:39:35;;;;;;;7.32;3.25;;;;;;;18.15;46.84;102193.25;5171799;28;20058;-75
2022/06/14 09:42:34;;;;;;;15.00;3.38;;;;;;;18.27;49.26;102178.03;5173020;28;20080;-74
2022/06/14 09:45:30;;;;;;;10.13;4.22;;;;;;;18.47;47.79;102181.09;5172144;28;20122;-73
2022/06/14 09:48:37;;;;;;;7.63;3.17;;;;;;;18.70;47.58;102183.16;5171878;28;20035;-74
2022/06/14 09:51:11;;;;;;;8.13;3.50;;;;;;;18.78;50.33;102164.50;5212858;28;20454;-73
2022/06/14 09:54:38;;;;;;;13.38;3.42;;;;;;;19.15;48.57;102171.50;5212966;28;20100;-73
2022/06/14 09:57:18;;;;;;;7.13;2.92;;;;;;;19.17;46.66;102167.03;5155261;29;20483;-78
2022/06/14 10:00:13;;;;;;;6.45;2.42;;;;;;;19.33;47.81;102170.13;5156554;29;20051;-75
2022/06/14 10:02:53;;;;;;;8.45;3.20;;;;;;;19.53;46.87;102169.59;5153854;29;20582;-78
2022/06/14 10:05:27;;;;;;;9.52;3.10;;;;;;;19.33;44.34;102166.63;5152811;29;20071;-76
2022/06/14 10:08:32;;;;;;;5.78;2.80;;;;;;;19.84;47.52;102169.59;5157489;29;20449;-79
2022/06/14 10:11:10;;;;;;;8.05;3.30;;;;;;;19.83;43.91;102162.53;5098130;29;20060;-73
2022/06/14 10:14:02;;;;;;;7.93;2.85;;;;;;;20.14;44.33;102164.28;5092302;29;20447;-74
2022/06/14 10:17:03;;;;;;;9.88;3.88;;;;;;;19.63;43.75;102167.53;5091644;29;20036;-73
2022/06/14 10:19:37;;;;;;;9.10;3.35;;;;;;;20.08;44.15;102148.59;5092138;29;20044;-74
2022/06/14 10:22:35;;;;;;;10.98;3.47;;;;;;;20.31;44.78;102154.94;5091941;29;20037;-74
2022/06/14 10:25:16;;;;;;;7.85;3.25;;;;;;;20.55;45.16;102148.84;5092143;29;20123;-77
2022/06/14 10:28:11;;;;;;;7.22;3.10;;;;;;;21.08;43.69;102155.06;5101152;29;20043;-72
2022/06/14 10:31:09;;;;;;;8.57;4.28;;;;;;;21.13;41.52;102139.84;5114222;29;20056;-74
2022/06/14 10:33:46;;;;;;;8.10;3.10;;;;;;;20.58;40.62;102127.53;5138554;29;20047;-72
2022/06/14 10:36:39;;;;;;;7.18;2.72;;;;;;;20.74;41.13;102129.72;5154375;29;20027;-74
2022/06/14 10:39:28;;;;;;;;;;;;;;;21.51;42.92;102128.78;5152284;28;20063;-73
2022/06/14 10:42:24;;;;;;;8.70;3.55;;;;;;;21.91;40.27;102119.28;5151773;29;20450;-73
2022/06/14 10:45:26;;;;;;;10.30;3.55;;;;;;;21.54;39.29;102123.34;5151794;28;20042;-74
2022/06/14 10:48:19;;;;;;;8.73;3.90;;;;;;;21.38;38.72;102120.38;5163146;28;20046;-74
2022/06/14 10:51:06;;;;;;;9.23;3.30;;;;;;;22.04;40.37;102120.53;5171131;28;20038;-73
2022/06/14 10:53:58;;;;;;;8.60;3.50;;;;;;;22.69;38.24;102117.94;5171088;28;20114;-73
2022/06/14 10:56:56;;;;;;;7.22;3.60;;;;;;;22.92;37.93;102106.28;5170436;28;20112;-74
2022/06/14 10:59:33;;;;;;;9.25;3.97;;;;;;;23.24;38.55;102104.88;5170114;28;20043;-78
2022/06/14 11:02:23;;;;;;;7.03;2.85;;;;;;;23.80;35.99;102103.19;5170397;28;20043;-81
2022/06/14 11:05:07;;;;;;;10.77;3.45;;;;;;;24.39;36.79;102106.56;5170325;28;20043;-76
2022/06/14 11:08:10;;;;;;;8.40;3.70;;;;;;;24.69;36.18;102097.94;5171269;28;20019;-74
2022/06/14 11:11:09;;;;;;;7.30;3.75;;;;;;;24.92;34.48;102099.44;5253426;28;20043;-79
2022/06/14 11:13:55;;;;;;;9.55;3.25;;;;;;;24.73;33.84;102101.34;5171275;28;20053;-73
2022/06/14 11:16:50;;;;;;;6.20;2.90;;;;;;;25.84;32.43;102090.91;5171143;28;20046;-74
2022/06/14 11:19:30;;;;;;;7.90;3.15;;;;;;;26.20;34.54;102089.75;5170431;28;20031;-73
2022/06/14 11:22:10;;;;;;;6.30;2.70;;;;;;;26.93;30.53;102094.38;5236767;28;20030;-81
2022/06/14 11:24:55;;;;;;;7.88;2.75;;;;;;;26.93;32.94;102093.47;5170404;28;20396;-77
2022/06/14 11:27:42;;;;;;;8.73;2.95;;;;;;;24.97;34.30;102098.31;5172089;28;20042;-81
2022/06/14 11:30:40;;;;;;;7.13;2.80;;;;;;;24.62;32.84;102083.22;5170929;28;20088;-77
2022/06/14 11:33:36;;;;;;;7.25;2.80;;;;;;;25.65;33.65;102087.53;5177530;28;20047;-84
2022/06/14 11:36:48;;;;;;;7.63;2.60;;;;;;;25.98;30.26;102076.75;5174220;28;20085;-80
2022/06/14 11:39:38;;;;;;;7.47;2.80;;;;;;;27.16;34.71;102075.13;5175977;28;20031;-86
2022/06/14 11:42:16;;;;;;;8.63;3.05;;;;;;;26.86;31.07;102062.72;5175354;28;20113;-84
2022/06/14 11:45:06;;;;;;;7.30;2.97;;;;;;;27.32;31.88;102062.53;5174448;28;20069;-80
2022/06/14 11:47:51;;;;;;;5.60;2.38;;;;;;;27.89;28.31;102068.72;5176671;28;20039;-74
2022/06/14 11:51:09;;;;;;;6.70;2.65;;;;;;;29.10;27.81;102060.44;5276668;28;20053;-77
2022/06/14 11:53:40;;;;;;;8.73;2.67;;;;;;;27.83;26.62;102064.63;5215053;28;20215;-78
2022/06/14 11:56:21;;;;;;;7.33;3.00;;;;;;;26.86;27.74;102058.22;5213136;28;20038;-74
2022/06/14 11:59:30;;;;;;;7.57;2.90;;;;;;;26.73;30.24;102063.47;5222720;28;20038;-83
2022/06/14 12:02:29;;;;;;;7.78;3.05;;;;;;;27.17;30.86;102047.41;5218897;28;20454;-73
2022/06/14 12:05:06;;;;;;;7.70;2.63;;;;;;;27.11;30.22;102048.66;5214189;28;20475;-74
2022/06/14 12:07:45;;;;;;;8.00;3.53;;;;;;;27.38;30.24;102055.94;5214545;28;20080;-74
2022/06/14 12:10:25;;;;;;;6.45;2.67;;;;;;;27.82;30.85;102057.53;5215087;28;20049;-77
2022/06/14 12:13:08;;;;;;;6.13;2.92;;;;;;;28.01;29.29;102055.41;5217460;28;20036;-75
2022/06/14 12:15:59;;;;;;;6.55;2.78;;;;;;;27.56;29.67;102053.88;5217049;28;20076;-73
2022/06/14 12:18:35;;;;;;;7.32;3.30;;;;;;;26.72;30.76;102055.53;5214907;28;20053;-76
2022/06/14 12:21:21;;;;;;;8.68;3.00;;;;;;;27.71;29.59;102041.31;5216865;28;20061;-74
2022/06/14 12:23:58;;;;;;;6.75;2.72;;;;;;;28.56;28.74;102036.50;5202398;28;20061;-76
2022/06/14 12:26:42;;;;;;;5.25;2.65;;;;;;;28.28;28.85;102037.56;5176885;28;20104;-78
2022/06/14 12:29:21;;;;;;;8.93;3.15;;;;;;;27.05;26.88;102033.00;5177273;28;20109;-74
2022/06/14 12:32:18;;;;;;;10.02;3.25;;;;;;;28.10;27.86;102039.66;5176958;28;20046;-80
2022/06/14 12:34:55;;;;;;;9.20;3.85;;;;;;;28.31;29.54;102037.34;5173369;28;20155;-76
2022/06/14 12:37:38;;;;;;;7.75;3.42;;;;;;;28.65;26.25;102033.19;5174135;28;20404;-77
2022/06/14 12:40:18;;;;;;;8.20;3.38;;;;;;;27.88;25.26;102026.81;5175566;28;20134;-74
2022/06/14 12:43:05;;;;;;;6.55;3.10;;;;;;;27.54;27.27;102021.00;5174082;28;20027;-72
2022/06/14 12:45:52;;;;;;;8.98;3.75;;;;;;;27.99;26.07;102026.97;5173669;28;20511;-75
2022/06/14 12:48:56;;;;;;;7.57;3.15;;;;;;;28.11;26.80;102018.13;5176209;28;20045;-76
2022/06/14 12:51:37;;;;;;;8.07;3.70;;;;;;;28.02;26.64;102018.72;5176516;28;20039;-73
2022/06/14 12:54:31;;;;;;;6.82;3.63;;;;;;;28.74;25.69;102018.31;5176388;28;20035;-76
2022/06/14 12:57:12;;;;;;;8.43;3.15;;;;;;;29.04;26.46;102014.38;5171790;28;20392;-74